Time;durP1;ratioP1;P1;durP2;ratioP2;P2;SDS_P1;SDS_P2;PMS_P1;PMS_P2;Temp;Humidity;BMP_temperature;BMP_pressure;BME280_temperature;BME280_humidity;BME280_pressure;Samples;Min_cycle;Max_cycle;Signal;HPM_P1;HPM_P2
2022/12/03 15:03:32;;;;;;;48.90;20.55;;;1.30;85.70;;;;;;5122216;27;20877;-59
2022/12/03 15:05:59;;;;;;;49.05;22.50;;;1.40;85.60;;;;;;5090798;28;20028;-58
2022/12/03 15:08:26;;;;;;;50.47;19.30;;;1.40;85.00;;;;;;5090712;28;20097;-63
2022/12/03 15:10:52;;;;;;;51.13;19.95;;;1.50;85.10;;;;;;5091367;28;20024;-59
2022/12/03 15:13:18;;;;;;;41.45;17.95;;;1.50;85.00;;;;;;5090764;28;20035;-60
2022/12/03 15:15:43;;;;;;;49.95;18.30;;;1.50;85.00;;;;;;5090393;28;20028;-58
2022/12/03 15:18:09;;;;;;;47.72;19.75;;;1.50;85.10;;;;;;5090392;28;20103;-60
2022/12/03 15:20:36;;;;;;;43.42;19.60;;;1.50;84.70;;;;;;5090249;28;20020;-61
2022/12/03 15:23:02;;;;;;;42.13;18.73;;;1.40;84.70;;;;;;5089820;28;20081;-59
2022/12/03 15:25:27;;;;;;;41.08;20.27;;;1.40;84.80;;;;;;5090311;28;20426;-59
2022/12/03 15:27:53;;;;;;;45.90;18.45;;;1.50;85.10;;;;;;5090024;28;20075;-58
2022/12/03 15:30:19;;;;;;;38.13;17.48;;;1.40;84.60;;;;;;5089871;28;20111;-59
2022/12/03 15:32:45;;;;;;;42.92;20.15;;;1.30;84.90;;;;;;5090290;28;20392;-60
2022/12/03 15:35:16;;;;;;;43.13;20.50;;;1.40;84.90;;;;;;5090167;28;20032;-58
2022/12/03 15:37:42;;;;;;;45.60;20.35;;;1.40;85.00;;;;;;5090130;28;20099;-60
2022/12/03 15:40:08;;;;;;;49.22;21.55;;;1.40;84.80;;;;;;5104426;28;20035;-58
2022/12/03 15:42:34;;;;;;;48.55;21.10;;;1.50;84.80;;;;;;5110286;28;20020;-60
2022/12/03 15:45:00;;;;;;;39.58;19.73;;;1.40;84.70;;;;;;5110213;28;20030;-59
2022/12/03 15:47:25;;;;;;;48.03;19.55;;;1.40;84.80;;;;;;5110320;28;20031;-60
2022/12/03 15:49:51;;;;;;;45.63;20.02;;;1.40;84.80;;;;;;5110426;28;20027;-58
2022/12/03 15:52:17;;;;;;;42.33;18.45;;;1.40;84.80;;;;;;5109999;28;20024;-60
2022/12/03 15:54:44;;;;;;;43.72;19.92;;;1.30;84.70;;;;;;5110370;28;20347;-59
2022/12/03 15:57:10;;;;;;;40.05;20.83;;;1.30;84.70;;;;;;5110054;28;20445;-59
2022/12/03 15:59:36;;;;;;;45.35;19.20;;;1.40;84.70;;;;;;5110146;28;20020;-59
2022/12/03 16:02:02;;;;;;;42.38;20.35;;;1.50;84.50;;;;;;5109558;28;20119;-60
2022/12/03 16:04:27;;;;;;;41.00;18.05;;;1.40;84.30;;;;;;5109976;28;20094;-58
2022/12/03 16:06:53;;;;;;;50.30;21.13;;;1.40;84.30;;;;;;5109479;28;20063;-59
2022/12/03 16:09:19;;;;;;;48.55;20.38;;;1.30;84.30;;;;;;5109848;28;20024;-59
2022/12/03 16:11:45;;;;;;;42.88;18.13;;;1.40;84.40;;;;;;5110278;28;20145;-58
2022/12/03 16:14:11;;;;;;;40.60;18.40;;;1.40;84.10;;;;;;5097749;28;20189;-58
2022/12/03 16:16:37;;;;;;;37.65;18.30;;;1.40;84.10;;;;;;5096340;28;20487;-61
2022/12/03 16:19:02;;;;;;;44.55;19.98;;;1.30;84.20;;;;;;5096148;28;20464;-59
2022/12/03 16:21:28;;;;;;;52.30;20.23;;;1.30;84.40;;;;;;5096029;28;20054;-58
2022/12/03 16:23:54;;;;;;;37.92;18.80;;;1.30;84.30;;;;;;5096034;28;20024;-59
2022/12/03 16:26:21;;;;;;;37.53;18.13;;;1.30;84.10;;;;;;5078147;28;20024;-59
2022/12/03 16:28:46;;;;;;;39.15;18.05;;;1.30;84.30;;;;;;5096004;28;20028;-60
2022/12/03 16:31:12;;;;;;;36.38;16.90;;;1.30;84.00;;;;;;5096015;28;20035;-60
2022/12/03 16:33:38;;;;;;;43.42;19.25;;;1.40;83.70;;;;;;5095955;28;20095;-59
2022/12/03 16:36:03;;;;;;;50.88;19.25;;;1.30;84.00;;;;;;5095750;28;20042;-60
2022/12/03 16:38:29;;;;;;;40.53;17.50;;;1.30;84.00;;;;;;5095836;28;20031;-60
2022/12/03 16:40:55;;;;;;;35.60;16.95;;;1.20;83.80;;;;;;5095640;28;20027;-61
2022/12/03 16:43:21;;;;;;;38.85;17.92;;;1.20;84.10;;;;;;5095477;28;20030;-59
2022/12/03 16:46:01;;;;;;;42.60;19.02;;;1.20;84.10;;;;;;5095703;28;20020;-60
2022/12/03 16:48:28;;;;;;;46.63;20.65;;;1.20;84.10;;;;;;5095696;28;20031;-60
2022/12/03 16:50:54;;;;;;;38.83;19.30;;;1.30;84.10;;;;;;5095765;28;20039;-59
2022/12/03 16:53:19;;;;;;;46.60;19.98;;;1.30;83.80;;;;;;5095503;28;20016;-59
2022/12/03 16:55:45;;;;;;;41.10;19.85;;;1.30;83.90;;;;;;5095866;28;20040;-60
2022/12/03 16:58:10;;;;;;;45.00;19.05;;;1.30;84.00;;;;;;5095741;28;20038;-56
2022/12/03 17:00:36;;;;;;;47.40;20.20;;;1.30;83.80;;;;;;5095210;28;20023;-60
2022/12/03 17:03:02;;;;;;;41.40;19.88;;;1.30;84.00;;;;;;5095087;28;20123;-59
2022/12/03 17:05:27;;;;;;;49.45;22.38;;;1.30;83.90;;;;;;5095508;28;20027;-58
2022/12/03 17:07:53;;;;;;;46.80;19.77;;;1.30;83.80;;;;;;5095219;28;20047;-61
2022/12/03 17:10:19;;;;;;;46.88;21.83;;;1.30;83.90;;;;;;5095281;28;20024;-58
2022/12/03 17:12:44;;;;;;;49.45;20.10;;;1.30;84.10;;;;;;5094880;28;20032;-59
2022/12/03 17:15:10;;;;;;;41.85;20.23;;;1.20;84.20;;;;;;5095179;28;20480;-57
2022/12/03 17:17:35;;;;;;;40.28;19.33;;;1.20;84.30;;;;;;5094676;28;20024;-60
2022/12/03 17:20:01;;;;;;;43.22;19.02;;;1.20;84.40;;;;;;5094807;28;20128;-61
2022/12/03 17:22:27;;;;;;;43.38;20.58;;;1.20;84.30;;;;;;5095458;28;20031;-59
2022/12/03 17:24:54;;;;;;;41.40;18.45;;;1.20;84.30;;;;;;5093753;28;20029;-58
2022/12/03 17:27:22;;;;;;;45.65;20.85;;;1.30;84.20;;;;;;5095426;28;20396;-62
2022/12/03 17:29:47;;;;;;;45.60;20.23;;;1.20;84.20;;;;;;5094999;28;20175;-57
2022/12/03 17:32:14;;;;;;;43.00;19.30;;;1.20;84.20;;;;;;5094645;28;20047;-58
2022/12/03 17:34:40;;;;;;;47.20;21.02;;;1.20;84.40;;;;;;5094574;28;20103;-58
2022/12/03 17:37:05;;;;;;;51.58;24.55;;;1.10;84.40;;;;;;5094685;28;20060;-57
2022/12/03 17:39:31;;;;;;;46.25;19.92;;;1.10;84.50;;;;;;5094841;28;20032;-59
2022/12/03 17:41:56;;;;;;;48.38;20.65;;;1.10;84.70;;;;;;5094701;28;20081;-58
2022/12/03 17:44:23;;;;;;;52.90;20.75;;;1.20;84.60;;;;;;5095277;28;20060;-57
2022/12/03 17:46:49;;;;;;;52.13;21.95;;;1.20;84.60;;;;;;5094305;28;20023;-60
2022/12/03 17:49:14;;;;;;;46.88;20.83;;;1.20;84.40;;;;;;5094378;28;20020;-59
2022/12/03 17:51:40;;;;;;;53.38;22.02;;;1.20;84.40;;;;;;5094140;28;20104;-58
2022/12/03 17:54:06;;;;;;;44.50;20.02;;;1.20;84.40;;;;;;5094509;28;20035;-60
2022/12/03 17:56:32;;;;;;;48.33;20.00;;;1.10;84.50;;;;;;5094152;28;20101;-57
2022/12/03 17:58:57;;;;;;;54.15;19.98;;;1.10;84.70;;;;;;5094097;28;20077;-60
2022/12/03 18:01:23;;;;;;;46.40;20.67;;;1.10;84.80;;;;;;5093633;28;20055;-59
2022/12/03 18:03:48;;;;;;;49.75;22.70;;;1.10;84.80;;;;;;5093982;28;20024;-58
2022/12/03 18:06:14;;;;;;;46.97;19.25;;;1.10;84.70;;;;;;5094322;28;20020;-58
2022/12/03 18:08:40;;;;;;;56.15;22.40;;;1.10;84.80;;;;;;5094295;28;20081;-60
2022/12/03 18:11:05;;;;;;;52.97;25.50;;;1.10;84.80;;;;;;5093865;28;20027;-59
2022/12/03 18:13:31;;;;;;;45.10;20.88;;;1.20;84.60;;;;;;5093761;28;20098;-59
2022/12/03 18:15:57;;;;;;;48.60;21.23;;;1.20;84.70;;;;;;5093865;28;20031;-60
2022/12/03 18:18:22;;;;;;;50.80;22.55;;;1.20;84.70;;;;;;5094068;28;20098;-60
2022/12/03 18:20:48;;;;;;;45.53;21.42;;;1.10;84.80;;;;;;5093863;28;20023;-59
2022/12/03 18:23:14;;;;;;;50.70;21.90;;;1.10;84.60;;;;;;5093706;28;20028;-60
2022/12/03 18:25:40;;;;;;;50.22;23.50;;;1.10;84.70;;;;;;5094015;28;20487;-59
2022/12/03 18:28:06;;;;;;;56.65;21.58;;;1.10;84.60;;;;;;5094581;28;20028;-60
2022/12/03 18:30:32;;;;;;;45.10;19.45;;;1.10;84.80;;;;;;5094719;28;20114;-59
2022/12/03 18:32:57;;;;;;;43.33;20.60;;;1.10;84.80;;;;;;5095114;28;20107;-58
2022/12/03 18:35:23;;;;;;;48.00;21.48;;;1.00;84.80;;;;;;5095981;28;20048;-62
2022/12/03 18:37:50;;;;;;;50.88;22.30;;;1.10;84.80;;;;;;5093827;28;20028;-58
2022/12/03 18:40:22;;;;;;;41.40;20.95;;;1.10;84.80;;;;;;5094273;28;20047;-59
2022/12/03 18:42:48;;;;;;;46.55;21.70;;;1.10;84.80;;;;;;5075734;28;20385;-60
2022/12/03 18:45:14;;;;;;;44.33;20.33;;;1.10;84.70;;;;;;5093682;28;20028;-59
2022/12/03 18:47:40;;;;;;;42.22;20.35;;;1.00;84.70;;;;;;5093346;28;20031;-61
2022/12/03 18:50:07;;;;;;;49.08;19.92;;;1.10;84.80;;;;;;5093421;28;20024;-60
2022/12/03 18:52:32;;;;;;;49.70;21.02;;;1.10;84.40;;;;;;5091988;28;20476;-60
2022/12/03 18:54:58;;;;;;;51.58;22.63;;;1.10;84.20;;;;;;5093544;28;20032;-58
2022/12/03 18:57:24;;;;;;;50.30;21.15;;;1.00;84.70;;;;;;5092164;28;20042;-58
2022/12/03 18:59:49;;;;;;;54.38;22.48;;;1.10;84.70;;;;;;5093605;28;20441;-59
2022/12/03 19:02:20;;;;;;;50.25;20.55;;;1.00;84.50;;;;;;5091765;28;20508;-58
2022/12/03 19:04:46;;;;;;;54.45;22.38;;;1.00;84.60;;;;;;5093282;28;20024;-57
2022/12/03 19:07:12;;;;;;;47.72;22.42;;;1.00;84.80;;;;;;5091923;28;20058;-60
2022/12/03 19:09:38;;;;;;;52.17;21.48;;;1.00;84.90;;;;;;5091847;28;20070;-59
2022/12/03 19:12:04;;;;;;;49.33;21.25;;;1.00;84.70;;;;;;5093263;28;20098;-58
2022/12/03 19:14:29;;;;;;;49.28;22.27;;;1.10;85.00;;;;;;5093446;28;20549;-61
2022/12/03 19:16:55;;;;;;;53.92;24.23;;;1.20;84.60;;;;;;5093086;28;20021;-60
2022/12/03 19:19:20;;;;;;;51.30;21.95;;;1.20;84.60;;;;;;5093113;28;20032;-59
2022/12/03 19:21:46;;;;;;;46.30;21.25;;;1.30;84.50;;;;;;5092993;28;20020;-58
2022/12/03 19:24:12;;;;;;;53.50;21.60;;;1.20;84.10;;;;;;5093070;28;20021;-61
2022/12/03 19:26:37;;;;;;;50.10;22.38;;;1.10;84.60;;;;;;5092874;28;20093;-61
2022/12/03 19:29:03;;;;;;;58.35;25.25;;;1.10;84.80;;;;;;5091828;28;20110;-59
2022/12/03 19:31:32;;;;;;;55.33;22.67;;;1.10;84.70;;;;;;5093265;28;20028;-60
2022/12/03 19:33:57;;;;;;;55.75;23.13;;;1.20;84.60;;;;;;5093376;28;20107;-60
2022/12/03 19:36:28;;;;;;;44.55;21.42;;;1.10;84.70;;;;;;5093092;28;20491;-59
2022/12/03 19:38:54;;;;;;;56.38;23.33;;;1.10;84.70;;;;;;5093335;28;20035;-60
2022/12/03 19:41:21;;;;;;;56.90;21.10;;;1.00;84.70;;;;;;5093367;28;20032;-60
2022/12/03 19:43:49;;;;;;;56.30;23.83;;;1.00;85.00;;;;;;5091843;28;20028;-60
2022/12/03 19:46:15;;;;;;;58.00;24.33;;;1.10;84.70;;;;;;5092882;28;20020;-59
2022/12/03 19:48:41;;;;;;;58.20;24.33;;;1.10;84.70;;;;;;5094264;28;20024;-58
2022/12/03 19:51:08;;;;;;;52.83;22.95;;;1.00;84.90;;;;;;5096706;28;20077;-58
2022/12/03 19:53:34;;;;;;;51.83;22.77;;;1.10;85.00;;;;;;5096715;28;20020;-60
2022/12/03 19:56:06;;;;;;;58.83;25.92;;;1.10;84.80;;;;;;5096486;28;20021;-59
2022/12/03 19:58:32;;;;;;;52.72;22.77;;;1.10;84.90;;;;;;5096481;28;20051;-59
2022/12/03 20:01:16;;;;;;;50.53;23.67;;;1.10;84.70;;;;;;5096414;28;20019;-60
2022/12/03 20:03:45;;;;;;;49.97;21.45;;;1.10;84.80;;;;;;5096660;28;20028;-59
2022/12/03 20:06:12;;;;;;;49.95;23.90;;;1.10;84.80;;;;;;5096207;28;20063;-60
2022/12/03 20:08:38;;;;;;;58.35;27.50;;;1.10;84.90;;;;;;5096278;28;20028;-60
2022/12/03 20:11:21;;;;;;;55.92;23.40;;;1.10;85.00;;;;;;5096464;28;20027;-59
2022/12/03 20:13:50;;;;;;;54.67;22.90;;;1.00;85.10;;;;;;5096540;28;20050;-61
2022/12/03 20:16:16;;;;;;;61.45;26.05;;;1.10;85.10;;;;;;5096501;28;20024;-59
2022/12/03 20:18:44;;;;;;;59.92;25.42;;;1.10;84.80;;;;;;5096307;28;20016;-61
2022/12/03 20:21:11;;;;;;;52.45;22.85;;;1.10;84.80;;;;;;5094769;28;20052;-59
2022/12/03 20:23:37;;;;;;;51.55;24.65;;;1.00;85.10;;;;;;5096286;28;20028;-61
2022/12/03 20:26:06;;;;;;;54.88;23.17;;;1.10;84.90;;;;;;5096511;28;20016;-62
2022/12/03 20:28:32;;;;;;;45.60;21.10;;;1.10;85.00;;;;;;5095303;28;20069;-60
2022/12/03 20:30:59;;;;;;;60.22;24.35;;;1.10;85.10;;;;;;5096054;28;20024;-59
2022/12/03 20:33:25;;;;;;;42.47;20.25;;;1.10;85.20;;;;;;5096121;28;20040;-60
2022/12/03 20:35:52;;;;;;;49.33;21.80;;;1.10;85.20;;;;;;5096186;28;20035;-61
2022/12/03 20:38:18;;;;;;;62.17;25.85;;;1.00;85.30;;;;;;5094383;28;20444;-59
2022/12/03 20:40:43;;;;;;;59.00;25.45;;;1.00;85.40;;;;;;5096013;28;20035;-61
2022/12/03 20:43:09;;;;;;;56.65;25.40;;;1.10;85.40;;;;;;5095674;28;20111;-59
2022/12/03 20:45:35;;;;;;;55.90;23.27;;;1.10;85.20;;;;;;5095489;28;20024;-61
2022/12/03 20:48:00;;;;;;;57.47;25.27;;;1.10;85.40;;;;;;5095884;28;20028;-61
2022/12/03 20:50:26;;;;;;;53.03;23.77;;;1.10;85.20;;;;;;5095268;28;20078;-59
2022/12/03 20:52:52;;;;;;;62.40;26.58;;;1.10;85.30;;;;;;5095440;28;20040;-59
2022/12/03 20:55:17;;;;;;;69.10;24.95;;;1.10;85.30;;;;;;5094224;28;20024;-59
2022/12/03 20:57:43;;;;;;;55.60;25.08;;;1.10;85.30;;;;;;5096129;28;20468;-59
2022/12/03 21:00:09;;;;;;;55.42;24.13;;;1.20;85.20;;;;;;5095252;28;20032;-58
